createdAt,value
2022-12-01T00:01:31.279Z,17.45
2022-12-01T00:06:28.482Z,17.02
2022-12-01T00:11:27.411Z,14.45
2022-12-01T00:16:25.160Z,14.45
2022-12-01T00:21:23.953Z,14.18
2022-12-01T00:26:23.811Z,15.18
2022-12-01T00:31:22.137Z,14.27
2022-12-01T00:36:21.225Z,14.73
2022-12-01T00:41:18.305Z,14.55
2022-12-01T00:46:16.637Z,17.42
2022-12-01T00:51:13.685Z,17.60
2022-12-01T00:56:11.654Z,16.85
2022-12-01T01:01:08.884Z,15.77
2022-12-01T01:06:07.644Z,14.82
2022-12-01T01:11:05.888Z,14.65
2022-12-01T01:16:06.622Z,13.57
2022-12-01T01:21:05.858Z,15.35
2022-12-01T01:26:04.514Z,15.20
2022-12-01T01:31:06.473Z,21.88
2022-12-01T01:36:05.290Z,16.73
2022-12-01T01:41:02.589Z,17.95
2022-12-01T01:45:59.848Z,22.77
2022-12-01T01:50:57.638Z,22.63
2022-12-01T01:55:55.435Z,22.63
2022-12-01T02:00:52.263Z,25.52
2022-12-01T02:05:49.707Z,23.63
2022-12-01T02:11:06.411Z,23.73
2022-12-01T02:16:12.703Z,25.80
2022-12-01T02:21:27.862Z,27.85
2022-12-01T02:26:39.233Z,18.75
2022-12-01T02:31:41.761Z,19.42
2022-12-01T02:36:45.528Z,25.05
2022-12-01T02:41:50.622Z,25.20
2022-12-01T02:46:53.330Z,26.00
2022-12-01T02:51:52.983Z,21.77
2022-12-01T02:56:52.715Z,25.58
2022-12-01T03:02:01.778Z,20.20
2022-12-01T03:07:07.375Z,19.30
2022-12-01T03:12:15.524Z,20.45
2022-12-01T03:17:20.892Z,14.88
2022-12-01T03:22:27.489Z,18.83
2022-12-01T03:27:28.390Z,20.15
2022-12-01T03:32:30.855Z,19.00
2022-12-01T03:37:33.724Z,19.95
2022-12-01T03:42:36.301Z,20.13
2022-12-01T03:47:37.199Z,16.45
2022-12-01T03:52:41.974Z,22.77
2022-12-01T03:57:49.908Z,24.23
2022-12-01T04:02:48.353Z,17.00
2022-12-01T04:07:45.277Z,19.67
2022-12-01T04:12:42.372Z,22.27
2022-12-01T04:17:42.888Z,26.52
2022-12-01T04:22:41.078Z,25.85
2022-12-01T04:27:41.906Z,23.98
2022-12-01T04:32:40.663Z,22.98
2022-12-01T04:37:37.995Z,24.75
2022-12-01T04:42:36.171Z,26.63
2022-12-01T04:47:33.560Z,22.38
2022-12-01T04:52:35.003Z,22.33
2022-12-01T04:57:32.356Z,24.10
2022-12-01T05:02:30.555Z,25.80
2022-12-01T05:07:32.321Z,23.40
2022-12-01T05:12:32.275Z,27.63
2022-12-01T05:17:36.788Z,32.72
2022-12-01T05:23:03.962Z,31.65
2022-12-01T05:27:51.820Z,23.00
2022-12-01T05:32:53.082Z,29.05
2022-12-01T05:37:50.417Z,30.65
2022-12-01T05:42:47.610Z,26.27
2022-12-01T05:47:45.064Z,32.72
2022-12-01T05:52:43.441Z,29.73
2022-12-01T05:57:40.783Z,32.90
2022-12-01T06:02:41.835Z,27.73
2022-12-01T06:07:39.827Z,31.60
2022-12-01T06:12:38.070Z,27.75
2022-12-01T06:17:39.929Z,29.67
2022-12-01T06:22:41.952Z,29.08
2022-12-01T06:27:40.023Z,26.45
2022-12-01T06:32:37.073Z,34.25
2022-12-01T06:37:34.447Z,29.20
2022-12-01T06:42:46.341Z,31.92
2022-12-01T06:47:43.420Z,25.08
2022-12-01T06:52:43.073Z,35.40
2022-12-01T06:57:40.102Z,32.72
2022-12-01T07:02:39.184Z,34.25
2022-12-01T07:07:37.299Z,32.22
2022-12-01T07:12:37.131Z,32.83
2022-12-01T07:17:35.622Z,36.58
2022-12-01T07:22:33.553Z,32.42
2022-12-01T07:27:32.623Z,29.92
2022-12-01T07:32:29.682Z,25.27
2022-12-01T07:37:26.838Z,25.85
2022-12-01T07:42:24.712Z,32.75
2022-12-01T07:47:21.798Z,28.23
2022-12-01T07:52:18.800Z,29.05
2022-12-01T07:57:17.533Z,24.45
2022-12-01T08:02:15.215Z,31.13
2022-12-01T08:07:12.206Z,30.55
2022-12-01T08:12:09.784Z,27.70
2022-12-01T08:17:06.891Z,20.95
2022-12-01T08:22:04.818Z,26.00
2022-12-01T08:27:01.732Z,25.95
2022-12-01T08:31:58.987Z,24.90
2022-12-01T08:36:56.187Z,27.52
2022-12-01T08:41:53.890Z,19.88
2022-12-01T08:46:50.753Z,22.38
2022-12-01T08:51:48.056Z,24.25
2022-12-01T08:56:46.662Z,24.05
2022-12-01T09:01:52.452Z,24.83
2022-12-01T09:07:09.624Z,21.45
2022-12-01T09:12:10.427Z,19.40
2022-12-01T09:17:12.172Z,21.63
2022-12-01T09:22:15.202Z,20.80
2022-12-01T09:27:12.648Z,16.02
2022-12-01T09:32:25.760Z,22.50
2022-12-01T09:37:30.155Z,25.02
2022-12-01T09:42:35.686Z,22.95
2022-12-01T09:47:36.701Z,20.70
2022-12-01T09:52:41.940Z,19.80
2022-12-01T09:57:43.734Z,24.85
2022-12-01T10:02:47.436Z,20.13
2022-12-01T10:07:48.093Z,20.17
2022-12-01T10:12:48.027Z,20.75
2022-12-01T10:17:58.090Z,17.73
2022-12-01T10:23:35.509Z,17.48
2022-12-01T10:29:07.660Z,23.88
2022-12-01T10:34:12.251Z,20.33
2022-12-01T10:39:19.023Z,17.55
2022-12-01T10:44:19.120Z,20.38
2022-12-01T10:49:19.211Z,16.92
2022-12-01T10:54:16.845Z,18.15
2022-12-01T10:59:32.729Z,20.17
2022-12-01T11:04:44.689Z,20.02
2022-12-01T11:09:44.943Z,18.98
2022-12-01T11:14:44.886Z,19.45
2022-12-01T11:19:47.498Z,18.10
2022-12-01T11:25:00.921Z,16.45
2022-12-01T11:30:04.268Z,15.13
2022-12-01T11:35:08.988Z,14.15
2022-12-01T11:40:22.548Z,15.85
2022-12-01T11:45:27.699Z,15.38
2022-12-01T11:50:28.352Z,16.90
2022-12-01T11:55:28.579Z,16.60
2022-12-01T12:00:29.081Z,17.23
2022-12-01T12:05:48.425Z,15.80
2022-12-01T12:10:56.811Z,13.30
2022-12-01T12:16:07.455Z,12.70
2022-12-01T12:21:21.213Z,16.38
2022-12-01T12:26:31.203Z,17.35
2022-12-01T12:31:44.949Z,15.43
2022-12-01T12:37:00.579Z,16.85
2022-12-01T12:42:12.078Z,23.23
2022-12-01T12:47:28.421Z,16.50
2022-12-01T12:52:31.398Z,19.13
2022-12-01T12:57:38.505Z,14.98
2022-12-01T13:02:42.374Z,16.10
2022-12-01T13:07:47.304Z,17.67
2022-12-01T13:12:59.278Z,13.93
2022-12-01T13:18:03.330Z,18.85
2022-12-01T13:23:03.182Z,14.55
2022-12-01T13:28:03.755Z,15.55
2022-12-01T13:33:08.400Z,14.15
2022-12-01T13:38:26.059Z,13.23
2022-12-01T13:43:25.442Z,17.52
2022-12-01T13:48:29.150Z,16.02
2022-12-01T13:53:30.176Z,17.60
2022-12-01T13:58:45.561Z,17.10
2022-12-01T14:03:53.896Z,17.13
2022-12-01T14:08:58.629Z,17.75
2022-12-01T14:14:00.258Z,18.00
2022-12-01T14:18:59.350Z,17.67
2022-12-01T14:24:02.061Z,16.38
2022-12-01T14:29:28.053Z,18.48
2022-12-01T14:34:26.525Z,14.27
2022-12-01T14:39:30.116Z,16.10
2022-12-01T14:44:36.144Z,16.60
2022-12-01T14:49:38.104Z,22.27
2022-12-01T14:54:44.165Z,17.58
2022-12-01T14:59:41.455Z,17.17
2022-12-01T15:05:09.546Z,22.58
2022-12-01T15:10:16.912Z,18.05
2022-12-01T15:15:24.220Z,19.50
2022-12-01T15:20:29.295Z,21.75
2022-12-01T15:25:33.364Z,16.95
2022-12-01T15:30:35.786Z,14.02
2022-12-01T15:35:33.652Z,17.55
2022-12-01T15:45:56.688Z,11.90
2022-12-01T15:51:06.367Z,13.82
2022-12-01T15:56:09.870Z,14.43
2022-12-01T16:01:13.196Z,12.52
2022-12-01T16:06:12.966Z,15.70
2022-12-01T16:11:13.273Z,10.50
2022-12-01T16:16:34.430Z,13.60
2022-12-01T16:21:44.519Z,13.38
2022-12-01T16:26:49.192Z,14.07
2022-12-01T16:32:12.800Z,12.88
2022-12-01T16:37:03.689Z,10.95
2022-12-01T16:42:06.265Z,11.00
2022-12-01T16:47:13.343Z,11.38
2022-12-01T16:57:29.785Z,16.48
2022-12-01T17:02:26.986Z,14.50
2022-12-01T17:07:24.555Z,13.60
2022-12-01T17:12:24.705Z,12.43
2022-12-01T17:17:22.557Z,12.95
2022-12-01T17:22:20.726Z,13.50
2022-12-01T17:27:19.487Z,13.57
2022-12-01T17:32:16.599Z,14.35
2022-12-01T17:37:20.545Z,18.73
2022-12-01T17:42:18.144Z,12.57
2022-12-01T17:47:16.163Z,16.23
2022-12-01T17:52:15.304Z,15.88
2022-12-01T17:57:13.249Z,16.55
2022-12-01T18:02:12.667Z,10.93
2022-12-01T18:07:15.198Z,17.65
2022-12-01T18:12:13.190Z,19.10
2022-12-01T18:17:21.421Z,19.17
2022-12-01T18:22:22.226Z,19.60
2022-12-01T18:27:20.388Z,17.20
2022-12-01T18:32:19.596Z,16.88
2022-12-01T18:37:19.539Z,13.30
2022-12-01T18:42:22.465Z,10.90
2022-12-01T18:47:20.205Z,15.40
2022-12-01T18:52:29.777Z,19.55
2022-12-01T18:57:27.808Z,18.25
2022-12-01T19:02:25.025Z,14.95
2022-12-01T19:07:28.176Z,10.98
2022-12-01T19:12:27.823Z,10.93
2022-12-01T19:18:09.325Z,10.32
2022-12-01T19:23:13.000Z,10.90
2022-12-01T19:28:10.877Z,12.32
2022-12-01T19:33:08.152Z,11.63
2022-12-01T19:38:07.951Z,17.05
2022-12-01T19:43:05.387Z,16.58
2022-12-01T19:48:32.207Z,12.75
2022-12-01T19:53:37.051Z,4.53
2022-12-01T19:58:34.393Z,1.15
2022-12-01T20:03:32.418Z,0.95
2022-12-01T20:08:32.839Z,1.35
2022-12-01T20:13:32.953Z,0.68
2022-12-01T20:18:32.200Z,1.17
2022-12-01T20:23:29.463Z,0.85
2022-12-01T20:28:27.181Z,0.80
2022-12-01T20:33:24.692Z,0.60
2022-12-01T20:38:27.819Z,0.50
2022-12-01T20:43:25.474Z,0.70
2022-12-01T20:48:25.073Z,1.17
2022-12-01T20:53:23.639Z,0.55
2022-12-01T20:58:20.948Z,1.00
2022-12-01T21:03:18.142Z,0.52
2022-12-01T21:08:15.465Z,0.75
2022-12-01T21:13:37.783Z,0.90
2022-12-01T21:18:49.580Z,0.77
2022-12-01T21:23:47.104Z,1.23
2022-12-01T21:28:45.902Z,0.52
2022-12-01T21:33:42.913Z,0.38
2022-12-01T21:38:41.875Z,0.22
2022-12-01T21:43:39.230Z,1.63
2022-12-01T21:48:37.566Z,0.77
2022-12-01T21:53:38.282Z,2.08
2022-12-01T21:58:37.625Z,0.25
2022-12-01T22:03:40.201Z,1.13
2022-12-01T22:08:40.314Z,1.10
2022-12-01T22:13:43.057Z,0.20
2022-12-01T22:18:43.188Z,0.47
2022-12-01T22:23:40.284Z,1.30
2022-12-01T22:28:37.281Z,0.57
2022-12-01T22:33:34.609Z,1.50
2022-12-01T22:38:37.373Z,1.70
2022-12-01T22:43:48.552Z,0.55
2022-12-01T22:48:49.643Z,0.95
2022-12-01T22:53:48.317Z,0.40
2022-12-01T22:58:45.923Z,0.57
2022-12-01T23:03:43.376Z,0.43
2022-12-01T23:08:40.706Z,0.57
2022-12-01T23:13:38.938Z,0.73
2022-12-01T23:18:36.008Z,0.52
2022-12-01T23:23:36.424Z,1.05
2022-12-01T23:28:35.903Z,0.90
2022-12-01T23:33:34.536Z,0.82
2022-12-01T23:38:36.286Z,1.55
2022-12-01T23:43:35.343Z,2.08
2022-12-01T23:48:36.338Z,0.20
2022-12-01T23:53:33.698Z,1.88
2022-12-01T23:58:30.757Z,1.02
